Time;durP1;ratioP1;P1;durP2;ratioP2;P2;SDS_P1;SDS_P2;PMS_P1;PMS_P2;Temp;Humidity;BMP_temperature;BMP_pressure;BME280_temperature;BME280_humidity;BME280_pressure;Samples;Min_cycle;Max_cycle;Signal;HPM_P1;HPM_P2
2023/09/22 15:14:27;;;;;;;2.58;2.38;;;17.70;99.90;;;;;;5082821;28;20388;-83
2023/09/22 15:16:53;;;;;;;1.70;1.55;;;17.80;99.90;;;;;;5062184;28;20048;-82
2023/09/22 15:19:19;;;;;;;4.00;1.93;;;17.60;99.90;;;;;;5053680;28;20094;-83
2023/09/22 15:21:45;;;;;;;1.50;1.40;;;17.50;99.90;;;;;;5069194;28;20341;-83
2023/09/22 15:24:10;;;;;;;2.08;1.63;;;17.40;1.00;;;;;;5056215;28;20435;-83
2023/09/22 15:26:36;;;;;;;2.30;1.40;;;17.30;1.00;;;;;;5085191;28;20045;-83
2023/09/22 15:29:02;;;;;;;1.75;1.50;;;17.30;1.00;;;;;;5051107;28;20513;-83
2023/09/22 15:31:28;;;;;;;3.35;1.52;;;17.20;1.00;;;;;;5077769;28;20051;-83
2023/09/22 15:33:53;;;;;;;1.80;1.70;;;17.20;1.00;;;;;;5068684;28;20040;-83
2023/09/22 15:36:19;;;;;;;2.60;1.63;;;17.10;1.00;;;;;;5071922;28;20765;-83
2023/09/22 15:38:46;;;;;;;1.73;1.63;;;17.10;1.00;;;;;;5038386;28;20390;-82
2023/09/22 15:41:12;;;;;;;1.85;1.50;;;17.10;1.00;;;;;;5051628;28;20045;-83
2023/09/22 15:43:38;;;;;;;1.90;1.77;;;17.00;1.00;;;;;;5068914;28;20124;-83
2023/09/22 15:46:05;;;;;;;1.88;1.55;;;17.00;1.00;;;;;;5066929;28;20033;-82
2023/09/22 15:48:31;;;;;;;3.60;2.13;;;17.00;1.00;;;;;;5068170;28;20135;-87
2023/09/22 15:50:57;;;;;;;3.10;2.00;;;16.90;1.00;;;;;;5068895;28;20041;-85
2023/09/22 15:53:26;;;;;;;2.17;1.67;;;16.90;1.00;;;;;;5071556;28;20040;-87
2023/09/22 15:55:52;;;;;;;1.73;1.63;;;16.80;1.00;;;;;;5081085;28;20056;-84
2023/09/22 15:58:18;;;;;;;1.70;1.60;;;16.80;1.00;;;;;;5067764;28;20052;-83
2023/09/22 16:00:45;;;;;;;1.80;1.50;;;16.80;1.00;;;;;;5084155;28;20056;-90
2023/09/22 16:03:13;;;;;;;2.17;1.95;;;16.70;1.00;;;;;;5069019;28;20037;-84
2023/09/22 16:05:43;;;;;;;1.90;1.80;;;16.70;1.00;;;;;;5068877;28;20049;-86
2023/09/22 16:08:09;;;;;;;1.83;1.50;;;16.70;1.00;;;;;;5067007;28;20045;-81
2023/09/22 16:10:35;;;;;;;3.83;1.63;;;16.70;1.00;;;;;;5053098;28;20045;-84
2023/09/22 16:13:05;;;;;;;2.08;1.88;;;16.70;1.00;;;;;;5055709;28;20057;-81
2023/09/22 16:15:31;;;;;;;1.98;1.35;;;16.70;1.00;;;;;;5068832;28;20409;-83
2023/09/22 16:17:57;;;;;;;1.70;1.60;;;16.70;1.00;;;;;;5066869;28;20132;-85
2023/09/22 16:20:23;;;;;;;3.78;1.70;;;16.70;1.00;;;;;;5067054;28;20127;-89
2023/09/22 16:22:49;;;;;;;3.17;1.67;;;16.70;1.00;;;;;;5062114;28;20132;-86
2023/09/22 16:25:18;;;;;;;3.17;1.60;;;16.60;1.00;;;;;;5071812;28;20061;-84
2023/09/22 16:27:44;;;;;;;2.08;1.90;;;16.60;1.00;;;;;;5052151;28;20120;-84
2023/09/22 16:30:10;;;;;;;2.72;2.10;;;16.50;1.00;;;;;;5049698;28;20052;-84
2023/09/22 16:32:36;;;;;;;3.30;1.40;;;16.50;1.00;;;;;;5052857;28;20037;-87
2023/09/22 16:35:02;;;;;;;2.80;1.50;;;16.50;1.00;;;;;;5053443;28;20138;-86
2023/09/22 16:37:28;;;;;;;;;;;16.40;1.00;;;;;;5052841;28;20060;-85
2023/09/22 16:39:54;;;;;;;2.35;1.67;;;16.40;1.00;;;;;;5053541;28;19932;-85
2023/09/22 16:42:19;;;;;;;1.20;1.03;;;16.30;1.00;;;;;;5022585;28;20080;-85
2023/09/22 16:44:45;;;;;;;1.60;1.50;;;16.30;1.00;;;;;;5035342;28;20046;-84
2023/09/22 16:47:10;;;;;;;3.20;1.70;;;16.20;1.00;;;;;;5050015;28;20291;-87
2023/09/22 16:49:38;;;;;;;2.17;1.50;;;16.20;1.00;;;;;;5037040;28;20502;-87
2023/09/22 16:52:04;;;;;;;2.50;1.65;;;16.20;1.00;;;;;;5036253;28;20079;-83
2023/09/22 16:54:30;;;;;;;2.65;1.50;;;16.10;1.00;;;;;;5052807;28;20077;-85
2023/09/22 16:56:55;;;;;;;3.83;1.63;;;16.10;1.00;;;;;;5052856;28;20468;-88
2023/09/22 16:59:21;;;;;;;3.00;1.75;;;16.00;1.00;;;;;;5027823;28;20087;-84
2023/09/22 17:01:47;;;;;;;2.23;1.90;;;16.00;1.00;;;;;;5051954;28;20041;-84
2023/09/22 17:04:12;;;;;;;2.35;2.25;;;16.00;1.00;;;;;;5038639;28;20908;-83
2023/09/22 17:06:39;;;;;;;1.73;1.63;;;15.90;1.00;;;;;;5051404;28;20059;-84
2023/09/22 17:09:09;;;;;;;2.05;1.90;;;15.80;1.00;;;;;;5020128;28;20320;-83
2023/09/22 17:11:35;;;;;;;2.08;1.75;;;15.80;1.00;;;;;;5053479;28;20045;-83
2023/09/22 17:14:01;;;;;;;1.75;1.65;;;15.80;1.00;;;;;;5051814;28;20443;-82
2023/09/22 17:16:27;;;;;;;2.03;1.73;;;15.80;1.00;;;;;;5036428;28;20183;-82
2023/09/22 17:18:52;;;;;;;4.63;2.30;;;15.80;1.00;;;;;;5053427;28;20060;-81
2023/09/22 17:21:18;;;;;;;4.87;2.03;;;15.70;1.00;;;;;;5051263;28;20440;-83
2023/09/22 17:23:44;;;;;;;4.47;2.13;;;15.70;1.00;;;;;;5052389;28;20041;-83
2023/09/22 17:26:11;;;;;;;2.55;2.20;;;15.70;1.00;;;;;;5051646;28;20045;-83
2023/09/22 17:28:37;;;;;;;2.20;1.73;;;15.70;1.00;;;;;;5052905;28;20052;-82
2023/09/22 17:31:03;;;;;;;3.60;1.48;;;15.60;1.00;;;;;;5053656;28;20063;-83
2023/09/22 17:33:29;;;;;;;1.80;1.10;;;15.60;1.00;;;;;;5050090;28;20055;-82
2023/09/22 17:35:59;;;;;;;2.22;1.17;;;15.50;1.00;;;;;;5053140;28;20492;-87
2023/09/22 17:38:25;;;;;;;1.58;0.80;;;15.50;1.00;;;;;;5052381;28;20057;-84
2023/09/22 17:40:50;;;;;;;1.07;0.97;;;15.30;1.00;;;;;;5053784;28;20071;-82
2023/09/22 17:43:16;;;;;;;1.00;0.98;;;15.30;1.00;;;;;;5053815;28;20036;-83
2023/09/22 17:45:42;;;;;;;1.23;0.90;;;15.20;1.00;;;;;;5053319;28;20463;-83
2023/09/22 17:48:09;;;;;;;1.15;1.05;;;15.20;1.00;;;;;;5052118;28;20124;-83
2023/09/22 17:50:39;;;;;;;3.95;1.15;;;15.20;1.00;;;;;;5051236;28;20052;-83
2023/09/22 17:53:06;;;;;;;1.90;0.90;;;15.10;1.00;;;;;;5051451;28;20049;-83
2023/09/22 17:55:34;;;;;;;2.05;1.13;;;15.10;1.00;;;;;;5053020;28;20049;-83
2023/09/22 17:58:01;;;;;;;1.52;1.42;;;15.10;1.00;;;;;;5068800;28;20449;-89
2023/09/22 18:00:27;;;;;;;3.60;1.55;;;15.10;1.00;;;;;;5032512;28;20094;-84
2023/09/22 18:02:52;;;;;;;1.90;1.23;;;15.10;1.00;;;;;;5052933;28;20048;-83
2023/09/22 18:05:18;;;;;;;1.95;1.27;;;15.00;1.00;;;;;;5036912;28;20128;-82
2023/09/22 18:07:44;;;;;;;1.87;1.63;;;15.00;1.00;;;;;;5044006;28;20060;-85
2023/09/22 18:10:13;;;;;;;1.57;1.40;;;15.00;1.00;;;;;;5051760;28;20049;-85
2023/09/22 18:12:40;;;;;;;2.28;0.82;;;14.90;1.00;;;;;;5034632;28;20319;-87
2023/09/22 18:15:06;;;;;;;1.23;1.13;;;14.90;1.00;;;;;;5049918;28;20471;-86
2023/09/22 18:17:34;;;;;;;;;;;14.80;1.00;;;;;;5052496;28;20041;-83
2023/09/22 18:20:00;;;;;;;1.45;1.10;;;14.80;1.00;;;;;;5048773;28;19921;-81
2023/09/22 18:22:25;;;;;;;1.63;1.13;;;14.70;1.00;;;;;;5048157;28;20044;-86
2023/09/22 18:24:53;;;;;;;1.25;1.10;;;14.70;1.00;;;;;;5051409;28;20033;-82
2023/09/22 18:27:21;;;;;;;0.80;0.80;;;14.70;1.00;;;;;;5053294;28;20132;-83
2023/09/22 18:29:47;;;;;;;2.15;1.30;;;14.70;1.00;;;;;;5051024;28;20076;-82
2023/09/22 18:32:16;;;;;;;2.72;1.40;;;14.60;1.00;;;;;;5051340;28;20126;-83
2023/09/22 18:34:43;;;;;;;1.20;1.00;;;14.60;1.00;;;;;;5052030;28;20518;-84
2023/09/22 18:37:13;;;;;;;1.27;1.08;;;14.50;1.00;;;;;;5050677;28;20041;-84
2023/09/22 18:39:42;;;;;;;1.40;1.30;;;14.40;1.00;;;;;;5052274;28;20049;-83
2023/09/22 18:42:08;;;;;;;1.92;1.40;;;14.40;1.00;;;;;;5034323;28;20041;-86
2023/09/22 18:44:34;;;;;;;3.33;1.73;;;14.40;2.00;;;;;;5055757;28;20053;-83
2023/09/22 18:47:02;;;;;;;1.33;1.23;;;14.30;4.00;;;;;;5034716;28;20382;-83
2023/09/22 18:49:28;;;;;;;2.35;1.48;;;14.30;8.40;;;;;;5051031;28;20483;-83
2023/09/22 18:51:54;;;;;;;1.37;1.17;;;14.30;10.40;;;;;;5052086;28;20106;-85
2023/09/22 18:54:21;;;;;;;2.30;1.57;;;14.30;10.40;;;;;;5051972;28;20091;-84
2023/09/22 18:56:48;;;;;;;3.17;1.70;;;14.20;11.90;;;;;;5051733;28;20057;-83
2023/09/22 18:59:13;;;;;;;2.05;1.85;;;14.20;14.70;;;;;;5052940;28;20043;-82
2023/09/22 19:01:39;;;;;;;2.23;1.83;;;14.20;16.50;;;;;;5030893;28;20040;-84
2023/09/22 19:04:05;;;;;;;1.90;1.80;;;14.20;17.10;;;;;;5048873;28;20120;-84
2023/09/22 19:06:32;;;;;;;2.50;1.50;;;14.20;18.60;;;;;;5049565;28;20825;-83
2023/09/22 19:08:58;;;;;;;3.03;1.52;;;14.20;18.90;;;;;;5050840;28;20087;-82
2023/09/22 19:11:24;;;;;;;2.75;1.70;;;14.20;19.60;;;;;;5033209;28;20488;-84
2023/09/22 19:13:51;;;;;;;2.00;1.52;;;14.20;21.50;;;;;;5048597;28;20049;-82
2023/09/22 19:16:19;;;;;;;1.58;1.48;;;14.10;21.50;;;;;;5050305;28;20069;-83
2023/09/22 19:18:45;;;;;;;2.70;1.60;;;14.10;21.40;;;;;;5049103;28;20546;-83
2023/09/22 19:21:11;;;;;;;1.42;1.33;;;14.10;23.20;;;;;;5049810;28;20102;-88
2023/09/22 19:23:42;;;;;;;2.80;1.95;;;14.10;24.50;;;;;;5050669;28;20048;-82
2023/09/22 19:26:10;;;;;;;1.67;1.58;;;14.10;27.90;;;;;;5049690;28;20052;-83
2023/09/22 19:28:40;;;;;;;2.38;1.73;;;14.10;27.70;;;;;;5050011;28;20623;-82
2023/09/22 19:31:07;;;;;;;2.92;1.60;;;14.10;27.20;;;;;;5050794;28;20044;-83
2023/09/22 19:33:33;;;;;;;2.42;1.67;;;14.10;28.30;;;;;;5048889;28;20632;-82
2023/09/22 19:35:58;;;;;;;2.55;2.00;;;14.10;30.00;;;;;;5048419;28;20045;-82
2023/09/22 19:38:25;;;;;;;3.08;1.80;;;14.10;31.40;;;;;;5049178;28;20048;-84
2023/09/22 19:40:51;;;;;;;3.20;1.80;;;14.10;32.60;;;;;;5066479;28;20483;-83
2023/09/22 19:43:20;;;;;;;2.75;1.60;;;14.10;32.90;;;;;;5033269;28;20037;-83
2023/09/22 19:45:46;;;;;;;1.90;1.60;;;14.10;34.60;;;;;;5033338;28;20037;-82
2023/09/22 19:48:12;;;;;;;2.45;1.80;;;14.00;36.70;;;;;;5049543;28;20083;-86
2023/09/22 19:50:38;;;;;;;4.10;1.90;;;14.10;37.50;;;;;;5050885;28;20045;-83
2023/09/22 19:53:10;;;;;;;4.57;2.20;;;14.00;37.60;;;;;;5048536;28;20339;-81
2023/09/22 19:55:36;;;;;;;2.30;2.10;;;14.00;37.20;;;;;;5064720;28;20044;-84
2023/09/22 19:58:03;;;;;;;3.00;2.67;;;14.00;38.50;;;;;;5043835;28;20072;-82
2023/09/22 20:00:28;;;;;;;;;;;13.90;39.70;;;;;;5050675;28;20041;-83
2023/09/22 20:02:54;;;;;;;2.72;2.42;;;13.90;43.10;;;;;;5053748;28;19971;-84
2023/09/22 20:05:20;;;;;;;3.07;2.47;;;13.90;39.00;;;;;;5051619;28;20123;-81
2023/09/22 20:07:46;;;;;;;3.20;2.53;;;13.90;39.70;;;;;;5055129;28;20118;-83
2023/09/22 20:10:15;;;;;;;3.13;2.87;;;13.90;40.80;;;;;;5053761;28;20045;-83
2023/09/22 20:12:42;;;;;;;3.38;2.80;;;13.90;41.30;;;;;;5002388;28;20491;-83
2023/09/22 20:15:11;;;;;;;4.63;2.97;;;13.80;42.10;;;;;;5052139;28;20111;-84
2023/09/22 20:17:37;;;;;;;4.38;4.00;;;13.80;44.00;;;;;;5053076;28;20131;-84
2023/09/22 20:20:05;;;;;;;6.13;5.47;;;13.80;45.40;;;;;;5053897;28;20059;-84
2023/09/22 20:22:31;;;;;;;6.95;6.28;;;13.80;46.70;;;;;;5036491;28;20438;-83
2023/09/22 20:24:57;;;;;;;7.05;6.43;;;13.80;46.60;;;;;;5035165;28;20081;-83
2023/09/22 20:27:27;;;;;;;7.33;6.60;;;13.80;46.40;;;;;;5053414;28;20075;-86
2023/09/22 20:29:53;;;;;;;6.50;5.90;;;13.80;46.90;;;;;;5053338;28;20295;-85
2023/09/22 20:32:25;;;;;;;6.45;5.70;;;13.80;48.40;;;;;;5052917;28;20045;-84
2023/09/22 20:34:54;;;;;;;5.78;5.18;;;13.80;49.30;;;;;;5036801;28;20056;-83
2023/09/22 20:37:21;;;;;;;4.93;4.32;;;13.70;48.90;;;;;;5036505;28;20083;-86
2023/09/22 20:39:47;;;;;;;5.38;4.63;;;13.70;50.10;;;;;;5052596;28;20099;-82
2023/09/22 20:42:13;;;;;;;5.88;4.20;;;13.70;52.70;;;;;;5053525;28;20076;-82
2023/09/22 20:44:39;;;;;;;4.67;3.90;;;13.60;52.80;;;;;;5053123;28;20073;-84
2023/09/22 20:47:05;;;;;;;4.55;4.15;;;13.70;53.00;;;;;;5035603;28;20291;-82
2023/09/22 20:49:31;;;;;;;4.25;3.72;;;13.70;54.10;;;;;;5034336;28;20083;-85
2023/09/22 20:51:57;;;;;;;5.20;3.77;;;13.70;54.80;;;;;;5052563;28;20110;-82
2023/09/22 20:54:28;;;;;;;3.85;3.53;;;13.60;55.00;;;;;;5052073;28;20037;-88
2023/09/22 20:56:55;;;;;;;5.63;4.03;;;13.70;55.10;;;;;;5036705;28;20056;-85
2023/09/22 20:59:22;;;;;;;4.03;3.42;;;13.70;55.80;;;;;;5036180;28;20049;-84
2023/09/22 21:01:48;;;;;;;;;;;13.70;55.90;;;;;;5050280;28;20048;-84
2023/09/22 21:04:14;;;;;;;3.45;3.22;;;13.70;61.40;;;;;;5031936;28;20666;-84
2023/09/22 21:06:43;;;;;;;3.20;2.90;;;13.60;55.80;;;;;;5051997;28;20040;-86
2023/09/22 21:09:15;;;;;;;4.82;2.83;;;13.60;57.70;;;;;;5052807;28;20044;-83
2023/09/22 21:11:42;;;;;;;3.42;2.90;;;13.60;59.40;;;;;;5051887;28;20078;-83
2023/09/22 21:14:08;;;;;;;5.32;3.05;;;13.60;60.70;;;;;;5057498;28;20068;-82
2023/09/22 21:16:34;;;;;;;5.50;3.15;;;13.60;61.50;;;;;;5044488;28;20057;-83
2023/09/22 21:19:00;;;;;;;9.00;3.22;;;13.60;62.30;;;;;;5058456;28;20041;-83
2023/09/22 21:21:26;;;;;;;3.95;3.55;;;13.60;63.00;;;;;;5074157;28;20049;-85
2023/09/22 21:23:52;;;;;;;6.33;3.60;;;13.60;63.00;;;;;;5074019;28;20139;-83
2023/09/22 21:26:20;;;;;;;6.13;3.57;;;13.70;64.10;;;;;;5051485;28;20068;-83
2023/09/22 21:28:47;;;;;;;4.38;3.22;;;13.70;64.60;;;;;;5049409;28;20053;-83
2023/09/22 21:31:13;;;;;;;4.18;3.80;;;13.60;64.80;;;;;;5051001;28;20049;-83
2023/09/22 21:33:39;;;;;;;4.05;3.75;;;13.70;64.90;;;;;;5049130;28;20099;-83
2023/09/22 21:36:04;;;;;;;4.57;4.17;;;13.70;65.50;;;;;;5052292;28;20041;-82
2023/09/22 21:38:30;;;;;;;5.00;3.85;;;13.70;66.30;;;;;;5053611;28;20082;-88
2023/09/22 21:41:04;;;;;;;6.10;4.32;;;13.70;65.70;;;;;;5036405;28;20044;-83
2023/09/22 21:43:30;;;;;;;5.65;4.63;;;13.70;65.20;;;;;;5053825;28;20412;-89
2023/09/22 21:45:56;;;;;;;4.85;4.05;;;13.70;63.00;;;;;;5051004;28;20053;-83
2023/09/22 21:48:21;;;;;;;7.03;4.50;;;13.60;61.30;;;;;;5052018;28;20091;-83
2023/09/22 21:50:47;;;;;;;5.47;5.07;;;13.60;61.50;;;;;;5052633;28;20048;-83
2023/09/22 21:53:13;;;;;;;5.93;5.20;;;13.60;62.80;;;;;;5050097;28;20033;-84
2023/09/22 21:55:42;;;;;;;5.93;5.23;;;13.50;63.00;;;;;;5050657;28;20044;-83
2023/09/22 21:58:09;;;;;;;5.72;5.10;;;13.50;62.80;;;;;;5052343;28;20044;-83
2023/09/22 22:00:35;;;;;;;4.90;4.50;;;13.50;64.40;;;;;;5050173;28;20045;-84
2023/09/22 22:03:00;;;;;;;5.43;4.93;;;13.50;64.00;;;;;;5051060;28;20116;-83
2023/09/22 22:05:28;;;;;;;5.73;4.87;;;13.40;64.50;;;;;;5052051;28;20041;-83
2023/09/22 22:07:55;;;;;;;5.00;4.50;;;13.40;64.90;;;;;;5049598;28;20486;-83
2023/09/22 22:10:20;;;;;;;5.10;4.60;;;13.40;65.60;;;;;;5050817;28;20075;-83
2023/09/22 22:12:49;;;;;;;5.53;4.47;;;13.40;65.20;;;;;;5050150;28;20131;-83
2023/09/22 22:15:16;;;;;;;5.18;4.75;;;13.40;64.80;;;;;;5050569;28;20049;-84
2023/09/22 22:17:42;;;;;;;;;;;13.40;65.10;;;;;;5051867;28;20415;-83
2023/09/22 22:20:15;;;;;;;5.60;4.65;;;13.40;71.20;;;;;;5051811;28;19920;-83
2023/09/22 22:22:41;;;;;;;5.55;5.05;;;13.30;64.50;;;;;;5032793;28;20040;-83
2023/09/22 22:25:10;;;;;;;5.82;4.65;;;13.30;63.90;;;;;;5051806;28;20063;-83
2023/09/22 22:27:36;;;;;;;6.93;4.47;;;13.30;64.00;;;;;;5051683;28;20114;-83
2023/09/22 22:30:04;;;;;;;5.13;4.63;;;13.30;65.50;;;;;;5049192;28;20106;-84
2023/09/22 22:32:30;;;;;;;4.53;4.10;;;13.30;65.30;;;;;;5051408;28;20125;-83
2023/09/22 22:34:58;;;;;;;4.47;4.10;;;13.20;64.20;;;;;;5051133;28;20124;-83
2023/09/22 22:37:25;;;;;;;5.03;4.45;;;13.20;63.10;;;;;;5033950;28;20077;-83
2023/09/22 22:39:51;;;;;;;5.45;4.55;;;13.20;62.80;;;;;;5050956;28;20047;-83
2023/09/22 22:42:16;;;;;;;4.03;3.73;;;13.20;63.70;;;;;;5050442;28;20558;-83
2023/09/22 22:44:43;;;;;;;4.50;4.10;;;13.20;63.00;;;;;;5049693;28;20399;-83
2023/09/22 22:47:12;;;;;;;3.85;3.50;;;13.10;63.20;;;;;;5051442;28;20121;-83
2023/09/22 22:49:41;;;;;;;3.55;3.15;;;13.10;63.40;;;;;;5034043;28;20301;-82
2023/09/22 22:52:09;;;;;;;2.50;2.30;;;13.10;64.10;;;;;;5050349;28;20048;-83
2023/09/22 22:54:38;;;;;;;2.90;2.40;;;13.10;64.00;;;;;;5049958;28;20053;-86
2023/09/22 22:57:05;;;;;;;2.25;2.05;;;13.10;62.20;;;;;;5048198;28;20120;-84
2023/09/22 22:59:32;;;;;;;;;;;13.00;60.70;;;;;;5050773;28;20117;-83
2023/09/22 23:01:58;;;;;;;5.63;2.83;;;13.00;63.60;;;;;;5049768;28;19929;-87
2023/09/22 23:04:27;;;;;;;7.55;3.60;;;12.90;61.80;;;;;;5033793;28;20398;-84
2023/09/22 23:06:53;;;;;;;6.85;3.80;;;12.90;63.70;;;;;;5049665;28;20072;-83
2023/09/22 23:09:19;;;;;;;4.05;3.65;;;12.80;65.40;;;;;;5033696;28;20091;-82
2023/09/22 23:11:51;;;;;;;4.37;3.97;;;12.80;67.20;;;;;;5049452;28;20036;-87
2023/09/22 23:14:22;;;;;;;5.32;4.93;;;12.70;69.40;;;;;;5050069;28;20056;-83
2023/09/22 23:16:48;;;;;;;4.50;3.80;;;12.70;71.30;;;;;;5047054;28;20041;-83
2023/09/22 23:19:18;;;;;;;5.10;4.13;;;12.70;72.60;;;;;;5050016;28;20071;-83
2023/09/22 23:21:44;;;;;;;4.95;4.15;;;12.70;74.20;;;;;;5017156;28;20064;-86
2023/09/22 23:24:12;;;;;;;4.97;4.45;;;12.70;75.60;;;;;;5050321;28;20048;-84
2023/09/22 23:26:41;;;;;;;9.77;4.93;;;12.70;76.60;;;;;;5051968;28;20048;-82
2023/09/22 23:29:11;;;;;;;5.47;3.95;;;12.70;77.60;;;;;;5050562;28;20513;-83
2023/09/22 23:31:40;;;;;;;4.30;3.90;;;12.70;78.70;;;;;;5036016;28;20041;-82
2023/09/22 23:34:05;;;;;;;4.80;4.32;;;12.60;80.20;;;;;;5040564;28;20561;-82
2023/09/22 23:36:32;;;;;;;5.40;3.83;;;12.60;81.70;;;;;;5056327;28;20059;-82
2023/09/22 23:39:02;;;;;;;4.60;4.03;;;12.60;82.30;;;;;;5055801;28;20410;-83
2023/09/22 23:41:29;;;;;;;4.78;4.30;;;12.60;83.00;;;;;;5055955;28;20400;-82
2023/09/22 23:43:55;;;;;;;4.28;3.88;;;12.60;84.40;;;;;;5036772;28;20041;-83
2023/09/22 23:46:21;;;;;;;4.53;4.13;;;12.60;85.10;;;;;;5051911;28;20052;-82
2023/09/22 23:48:46;;;;;;;4.93;4.33;;;12.60;85.50;;;;;;5035187;28;20049;-82
2023/09/22 23:51:12;;;;;;;5.10;4.43;;;12.60;86.10;;;;;;5051044;28;20045;-83
2023/09/22 23:53:41;;;;;;;4.67;4.20;;;12.60;86.60;;;;;;5042725;28;20091;-82
2023/09/22 23:56:06;;;;;;;4.85;4.20;;;12.60;87.30;;;;;;5052852;28;20049;-83
2023/09/22 23:58:33;;;;;;;7.83;4.13;;;12.60;87.70;;;;;;5050460;28;20041;-83
